sensor_id;sensor_type;location;lat;lon;timestamp;P1;durP1;ratioP1;P2;durP2;ratioP2
36501;SDS011;25393;46.108;3.390;2022-08-21T00:02:24;9.18;;;2.97;;
36501;SDS011;25393;46.108;3.390;2022-08-21T00:04:55;5.43;;;3.15;;
36501;SDS011;25393;46.108;3.390;2022-08-21T00:07:23;5.30;;;2.83;;
36501;SDS011;25393;46.108;3.390;2022-08-21T00:09:51;3.03;;;2.80;;
36501;SDS011;25393;46.108;3.390;2022-08-21T00:12:18;7.88;;;3.33;;
36501;SDS011;25393;46.108;3.390;2022-08-21T00:14:46;2.97;;;2.83;;
36501;SDS011;25393;46.108;3.390;2022-08-21T00:17:12;3.45;;;3.00;;
36501;SDS011;25393;46.108;3.390;2022-08-21T00:19:39;7.40;;;3.30;;
36501;SDS011;25393;46.108;3.390;2022-08-21T00:22:06;3.85;;;3.17;;
36501;SDS011;25393;46.108;3.390;2022-08-21T00:24:32;2.70;;;2.50;;
36501;SDS011;25393;46.108;3.390;2022-08-21T00:26:59;8.30;;;2.60;;
36501;SDS011;25393;46.108;3.390;2022-08-21T00:29:26;7.95;;;3.05;;
36501;SDS011;25393;46.108;3.390;2022-08-21T00:31:52;3.40;;;2.50;;
36501;SDS011;25393;46.108;3.390;2022-08-21T00:34:19;9.40;;;2.83;;
36501;SDS011;25393;46.108;3.390;2022-08-21T00:36:46;3.50;;;3.13;;
36501;SDS011;25393;46.108;3.390;2022-08-21T00:39:13;5.97;;;2.90;;
36501;SDS011;25393;46.108;3.390;2022-08-21T00:41:40;8.70;;;2.60;;
36501;SDS011;25393;46.108;3.390;2022-08-21T00:44:09;4.53;;;3.00;;
36501;SDS011;25393;46.108;3.390;2022-08-21T00:46:38;4.43;;;2.78;;
36501;SDS011;25393;46.108;3.390;2022-08-21T00:49:06;3.22;;;2.65;;
36501;SDS011;25393;46.108;3.390;2022-08-21T00:51:38;3.30;;;2.85;;
36501;SDS011;25393;46.108;3.390;2022-08-21T00:54:09;5.75;;;3.15;;
36501;SDS011;25393;46.108;3.390;2022-08-21T00:56:45;3.47;;;2.83;;
36501;SDS011;25393;46.108;3.390;2022-08-21T00:59:15;6.18;;;2.70;;
36501;SDS011;25393;46.108;3.390;2022-08-21T01:01:43;7.30;;;3.08;;
36501;SDS011;25393;46.108;3.390;2022-08-21T01:04:09;3.50;;;3.20;;
36501;SDS011;25393;46.108;3.390;2022-08-21T01:06:37;4.75;;;3.10;;
36501;SDS011;25393;46.108;3.390;2022-08-21T01:09:04;5.80;;;2.95;;
36501;SDS011;25393;46.108;3.390;2022-08-21T01:11:30;5.32;;;2.60;;
36501;SDS011;25393;46.108;3.390;2022-08-21T01:14:00;2.72;;;2.53;;
36501;SDS011;25393;46.108;3.390;2022-08-21T01:16:31;3.92;;;2.40;;
36501;SDS011;25393;46.108;3.390;2022-08-21T01:18:59;2.40;;;2.30;;
36501;SDS011;25393;46.108;3.390;2022-08-21T01:21:26;9.68;;;3.10;;
36501;SDS011;25393;46.108;3.390;2022-08-21T01:23:55;7.28;;;2.72;;
36501;SDS011;25393;46.108;3.390;2022-08-21T01:26:27;5.78;;;3.17;;
36501;SDS011;25393;46.108;3.390;2022-08-21T01:29:03;6.68;;;1.98;;
36501;SDS011;25393;46.108;3.390;2022-08-21T01:31:46;1.52;;;1.00;;
36501;SDS011;25393;46.108;3.390;2022-08-21T01:34:13;5.95;;;1.45;;
36501;SDS011;25393;46.108;3.390;2022-08-21T01:36:42;2.17;;;1.92;;
36501;SDS011;25393;46.108;3.390;2022-08-21T01:39:10;5.95;;;1.80;;
36501;SDS011;25393;46.108;3.390;2022-08-21T01:41:37;8.90;;;1.30;;
36501;SDS011;25393;46.108;3.390;2022-08-21T01:44:04;2.40;;;1.30;;
36501;SDS011;25393;46.108;3.390;2022-08-21T01:46:31;8.98;;;1.02;;
36501;SDS011;25393;46.108;3.390;2022-08-21T01:48:57;4.03;;;1.17;;
36501;SDS011;25393;46.108;3.390;2022-08-21T01:51:24;3.22;;;1.00;;
36501;SDS011;25393;46.108;3.390;2022-08-21T01:53:51;3.28;;;1.13;;
36501;SDS011;25393;46.108;3.390;2022-08-21T01:56:18;8.70;;;0.80;;
36501;SDS011;25393;46.108;3.390;2022-08-21T01:58:45;2.22;;;0.93;;
36501;SDS011;25393;46.108;3.390;2022-08-21T02:01:13;7.70;;;1.02;;
36501;SDS011;25393;46.108;3.390;2022-08-21T02:03:40;6.72;;;1.20;;
36501;SDS011;25393;46.108;3.390;2022-08-21T02:06:11;9.85;;;1.10;;
36501;SDS011;25393;46.108;3.390;2022-08-21T02:08:40;1.20;;;0.95;;
36501;SDS011;25393;46.108;3.390;2022-08-21T02:11:06;4.53;;;1.20;;
36501;SDS011;25393;46.108;3.390;2022-08-21T02:13:33;7.38;;;1.00;;
36501;SDS011;25393;46.108;3.390;2022-08-21T02:16:02;8.88;;;1.17;;
36501;SDS011;25393;46.108;3.390;2022-08-21T02:18:29;4.95;;;1.20;;
36501;SDS011;25393;46.108;3.390;2022-08-21T02:20:55;3.25;;;0.90;;
36501;SDS011;25393;46.108;3.390;2022-08-21T02:23:23;5.63;;;1.08;;
36501;SDS011;25393;46.108;3.390;2022-08-21T02:26:03;3.80;;;1.27;;
36501;SDS011;25393;46.108;3.390;2022-08-21T02:28:32;1.58;;;1.15;;
36501;SDS011;25393;46.108;3.390;2022-08-21T02:31:00;2.05;;;1.23;;
36501;SDS011;25393;46.108;3.390;2022-08-21T02:33:27;6.97;;;1.50;;
36501;SDS011;25393;46.108;3.390;2022-08-21T02:35:55;4.07;;;0.98;;
36501;SDS011;25393;46.108;3.390;2022-08-21T02:38:25;5.07;;;1.23;;
36501;SDS011;25393;46.108;3.390;2022-08-21T02:40:54;1.55;;;0.90;;
36501;SDS011;25393;46.108;3.390;2022-08-21T02:43:22;3.20;;;1.25;;
36501;SDS011;25393;46.108;3.390;2022-08-21T02:45:50;0.80;;;0.80;;
36501;SDS011;25393;46.108;3.390;2022-08-21T02:48:19;5.35;;;1.15;;
36501;SDS011;25393;46.108;3.390;2022-08-21T02:50:51;6.72;;;1.63;;
36501;SDS011;25393;46.108;3.390;2022-08-21T02:53:19;2.72;;;1.02;;
36501;SDS011;25393;46.108;3.390;2022-08-21T02:55:47;5.47;;;1.30;;
36501;SDS011;25393;46.108;3.390;2022-08-21T02:58:16;2.00;;;0.75;;
36501;SDS011;25393;46.108;3.390;2022-08-21T03:00:46;2.55;;;1.10;;
36501;SDS011;25393;46.108;3.390;2022-08-21T03:03:13;4.43;;;1.23;;
36501;SDS011;25393;46.108;3.390;2022-08-21T03:05:41;2.97;;;1.42;;
36501;SDS011;25393;46.108;3.390;2022-08-21T03:08:10;4.13;;;1.05;;
36501;SDS011;25393;46.108;3.390;2022-08-21T03:10:42;5.13;;;1.00;;
36501;SDS011;25393;46.108;3.390;2022-08-21T03:13:11;11.30;;;1.33;;
36501;SDS011;25393;46.108;3.390;2022-08-21T03:15:41;7.13;;;1.00;;
36501;SDS011;25393;46.108;3.390;2022-08-21T03:18:08;7.07;;;1.52;;
36501;SDS011;25393;46.108;3.390;2022-08-21T03:20:36;11.60;;;1.40;;
36501;SDS011;25393;46.108;3.390;2022-08-21T03:23:04;5.38;;;1.38;;
36501;SDS011;25393;46.108;3.390;2022-08-21T03:25:38;2.80;;;1.00;;
36501;SDS011;25393;46.108;3.390;2022-08-21T03:28:10;3.63;;;1.48;;
36501;SDS011;25393;46.108;3.390;2022-08-21T03:30:41;1.60;;;1.15;;
36501;SDS011;25393;46.108;3.390;2022-08-21T03:33:10;2.33;;;1.23;;
36501;SDS011;25393;46.108;3.390;2022-08-21T03:35:40;1.48;;;1.33;;
36501;SDS011;25393;46.108;3.390;2022-08-21T03:38:08;4.35;;;1.05;;
36501;SDS011;25393;46.108;3.390;2022-08-21T03:40:35;6.10;;;1.83;;
36501;SDS011;25393;46.108;3.390;2022-08-21T03:43:02;1.85;;;0.95;;
36501;SDS011;25393;46.108;3.390;2022-08-21T03:45:29;2.28;;;1.15;;
36501;SDS011;25393;46.108;3.390;2022-08-21T03:47:59;1.45;;;1.23;;
36501;SDS011;25393;46.108;3.390;2022-08-21T03:50:29;7.35;;;1.42;;
36501;SDS011;25393;46.108;3.390;2022-08-21T03:53:00;9.10;;;1.02;;
36501;SDS011;25393;46.108;3.390;2022-08-21T03:55:27;1.88;;;1.42;;
36501;SDS011;25393;46.108;3.390;2022-08-21T03:57:54;2.90;;;0.80;;
36501;SDS011;25393;46.108;3.390;2022-08-21T04:00:22;3.53;;;1.02;;
36501;SDS011;25393;46.108;3.390;2022-08-21T04:02:49;2.65;;;0.90;;
36501;SDS011;25393;46.108;3.390;2022-08-21T04:05:16;6.45;;;1.15;;
36501;SDS011;25393;46.108;3.390;2022-08-21T04:08:04;3.83;;;1.00;;
36501;SDS011;25393;46.108;3.390;2022-08-21T04:10:33;6.55;;;1.20;;
36501;SDS011;25393;46.108;3.390;2022-08-21T04:13:01;3.67;;;1.10;;
36501;SDS011;25393;46.108;3.390;2022-08-21T04:15:29;6.53;;;1.20;;
36501;SDS011;25393;46.108;3.390;2022-08-21T04:17:56;3.60;;;1.38;;
36501;SDS011;25393;46.108;3.390;2022-08-21T04:20:23;8.02;;;1.23;;
36501;SDS011;25393;46.108;3.390;2022-08-21T04:22:51;3.00;;;1.50;;
36501;SDS011;25393;46.108;3.390;2022-08-21T04:25:19;5.43;;;1.20;;
36501;SDS011;25393;46.108;3.390;2022-08-21T04:27:47;5.05;;;1.30;;
36501;SDS011;25393;46.108;3.390;2022-08-21T04:30:15;4.55;;;1.42;;
36501;SDS011;25393;46.108;3.390;2022-08-21T04:32:43;2.50;;;1.00;;
36501;SDS011;25393;46.108;3.390;2022-08-21T04:35:11;3.80;;;1.25;;
36501;SDS011;25393;46.108;3.390;2022-08-21T04:37:39;3.80;;;1.20;;
36501;SDS011;25393;46.108;3.390;2022-08-21T04:40:08;4.75;;;1.20;;
36501;SDS011;25393;46.108;3.390;2022-08-21T04:42:43;1.90;;;1.08;;
36501;SDS011;25393;46.108;3.390;2022-08-21T04:45:16;1.67;;;1.10;;
36501;SDS011;25393;46.108;3.390;2022-08-21T04:47:47;1.58;;;1.20;;
36501;SDS011;25393;46.108;3.390;2022-08-21T04:50:19;2.60;;;1.25;;
36501;SDS011;25393;46.108;3.390;2022-08-21T04:52:50;1.25;;;1.10;;
36501;SDS011;25393;46.108;3.390;2022-08-21T04:55:17;2.58;;;1.13;;
36501;SDS011;25393;46.108;3.390;2022-08-21T04:57:46;4.13;;;1.35;;
36501;SDS011;25393;46.108;3.390;2022-08-21T05:00:14;2.20;;;1.30;;
36501;SDS011;25393;46.108;3.390;2022-08-21T05:02:45;1.42;;;1.00;;
36501;SDS011;25393;46.108;3.390;2022-08-21T05:05:14;5.50;;;1.50;;
36501;SDS011;25393;46.108;3.390;2022-08-21T05:07:42;3.83;;;1.15;;
36501;SDS011;25393;46.108;3.390;2022-08-21T05:10:10;2.45;;;1.17;;
36501;SDS011;25393;46.108;3.390;2022-08-21T05:12:49;5.43;;;1.08;;
36501;SDS011;25393;46.108;3.390;2022-08-21T05:15:16;6.40;;;1.20;;
36501;SDS011;25393;46.108;3.390;2022-08-21T05:17:46;1.52;;;1.20;;
36501;SDS011;25393;46.108;3.390;2022-08-21T05:20:26;7.13;;;1.45;;
36501;SDS011;25393;46.108;3.390;2022-08-21T05:22:53;2.13;;;1.67;;
36501;SDS011;25393;46.108;3.390;2022-08-21T05:25:19;1.25;;;1.10;;
36501;SDS011;25393;46.108;3.390;2022-08-21T05:27:48;3.33;;;1.10;;
36501;SDS011;25393;46.108;3.390;2022-08-21T05:30:18;5.10;;;1.60;;
36501;SDS011;25393;46.108;3.390;2022-08-21T05:32:46;8.27;;;1.33;;
36501;SDS011;25393;46.108;3.390;2022-08-21T05:35:14;2.90;;;1.17;;
36501;SDS011;25393;46.108;3.390;2022-08-21T05:37:41;1.58;;;0.98;;
36501;SDS011;25393;46.108;3.390;2022-08-21T05:40:08;8.50;;;0.98;;
36501;SDS011;25393;46.108;3.390;2022-08-21T05:42:49;4.70;;;1.20;;
36501;SDS011;25393;46.108;3.390;2022-08-21T05:45:21;3.80;;;1.20;;
36501;SDS011;25393;46.108;3.390;2022-08-21T05:48:30;4.35;;;1.27;;
36501;SDS011;25393;46.108;3.390;2022-08-21T05:50:56;3.53;;;1.38;;
36501;SDS011;25393;46.108;3.390;2022-08-21T05:53:23;6.53;;;1.48;;
36501;SDS011;25393;46.108;3.390;2022-08-21T05:55:50;4.40;;;1.27;;
36501;SDS011;25393;46.108;3.390;2022-08-21T05:58:18;2.70;;;1.25;;
36501;SDS011;25393;46.108;3.390;2022-08-21T06:00:47;2.55;;;1.45;;
36501;SDS011;25393;46.108;3.390;2022-08-21T06:03:25;6.68;;;1.58;;
36501;SDS011;25393;46.108;3.390;2022-08-21T06:05:54;2.25;;;1.35;;
36501;SDS011;25393;46.108;3.390;2022-08-21T06:08:22;3.92;;;1.52;;
36501;SDS011;25393;46.108;3.390;2022-08-21T06:10:49;2.50;;;1.40;;
36501;SDS011;25393;46.108;3.390;2022-08-21T06:13:19;5.68;;;1.60;;
36501;SDS011;25393;46.108;3.390;2022-08-21T06:15:47;12.32;;;1.38;;
36501;SDS011;25393;46.108;3.390;2022-08-21T06:18:14;1.35;;;1.10;;
36501;SDS011;25393;46.108;3.390;2022-08-21T06:20:41;9.00;;;1.85;;
36501;SDS011;25393;46.108;3.390;2022-08-21T06:23:08;3.00;;;1.27;;
36501;SDS011;25393;46.108;3.390;2022-08-21T06:25:35;2.45;;;1.10;;
36501;SDS011;25393;46.108;3.390;2022-08-21T06:30:28;4.43;;;1.27;;
36501;SDS011;25393;46.108;3.390;2022-08-21T06:32:55;4.10;;;1.38;;
36501;SDS011;25393;46.108;3.390;2022-08-21T06:35:22;3.25;;;2.10;;
36501;SDS011;25393;46.108;3.390;2022-08-21T06:37:50;3.75;;;1.35;;
36501;SDS011;25393;46.108;3.390;2022-08-21T06:40:17;2.13;;;1.30;;
36501;SDS011;25393;46.108;3.390;2022-08-21T06:42:47;4.68;;;1.30;;
36501;SDS011;25393;46.108;3.390;2022-08-21T06:45:15;3.90;;;1.70;;
36501;SDS011;25393;46.108;3.390;2022-08-21T06:47:41;5.32;;;1.58;;
36501;SDS011;25393;46.108;3.390;2022-08-21T06:50:08;2.88;;;1.70;;
36501;SDS011;25393;46.108;3.390;2022-08-21T06:52:35;11.27;;;1.52;;
36501;SDS011;25393;46.108;3.390;2022-08-21T06:55:08;4.95;;;1.30;;
36501;SDS011;25393;46.108;3.390;2022-08-21T06:57:35;4.07;;;1.33;;
36501;SDS011;25393;46.108;3.390;2022-08-21T07:00:05;3.80;;;1.27;;
36501;SDS011;25393;46.108;3.390;2022-08-21T07:02:33;5.53;;;1.40;;
36501;SDS011;25393;46.108;3.390;2022-08-21T07:05:00;8.82;;;2.08;;
36501;SDS011;25393;46.108;3.390;2022-08-21T07:07:42;4.57;;;4.15;;
36501;SDS011;25393;46.108;3.390;2022-08-21T07:10:13;3.40;;;1.58;;
36501;SDS011;25393;46.108;3.390;2022-08-21T07:12:48;3.25;;;1.25;;
36501;SDS011;25393;46.108;3.390;2022-08-21T07:15:16;5.28;;;1.73;;
36501;SDS011;25393;46.108;3.390;2022-08-21T07:17:43;4.93;;;4.47;;
36501;SDS011;25393;46.108;3.390;2022-08-21T07:20:12;5.22;;;3.67;;
36501;SDS011;25393;46.108;3.390;2022-08-21T07:22:41;7.68;;;3.25;;
36501;SDS011;25393;46.108;3.390;2022-08-21T07:25:09;7.68;;;3.10;;
36501;SDS011;25393;46.108;3.390;2022-08-21T07:27:35;3.65;;;3.35;;
36501;SDS011;25393;46.108;3.390;2022-08-21T07:30:03;6.10;;;3.38;;
36501;SDS011;25393;46.108;3.390;2022-08-21T07:32:30;10.65;;;3.33;;
36501;SDS011;25393;46.108;3.390;2022-08-21T07:34:57;4.65;;;3.03;;
36501;SDS011;25393;46.108;3.390;2022-08-21T07:37:24;4.47;;;3.38;;
36501;SDS011;25393;46.108;3.390;2022-08-21T07:39:51;3.55;;;3.25;;
36501;SDS011;25393;46.108;3.390;2022-08-21T07:42:17;2.97;;;2.78;;
36501;SDS011;25393;46.108;3.390;2022-08-21T07:44:47;4.60;;;2.78;;
36501;SDS011;25393;46.108;3.390;2022-08-21T07:47:18;3.15;;;2.95;;
36501;SDS011;25393;46.108;3.390;2022-08-21T07:50:05;3.33;;;3.05;;
36501;SDS011;25393;46.108;3.390;2022-08-21T07:52:41;3.97;;;3.50;;
36501;SDS011;25393;46.108;3.390;2022-08-21T07:55:11;3.20;;;2.65;;
36501;SDS011;25393;46.108;3.390;2022-08-21T07:57:40;8.25;;;3.05;;
36501;SDS011;25393;46.108;3.390;2022-08-21T08:00:09;2.80;;;2.60;;
36501;SDS011;25393;46.108;3.390;2022-08-21T08:02:40;7.95;;;3.00;;
36501;SDS011;25393;46.108;3.390;2022-08-21T08:05:11;2.80;;;2.67;;
36501;SDS011;25393;46.108;3.390;2022-08-21T08:07:38;4.68;;;3.00;;
36501;SDS011;25393;46.108;3.390;2022-08-21T08:10:05;7.72;;;3.53;;
36501;SDS011;25393;46.108;3.390;2022-08-21T08:12:33;3.55;;;2.75;;
36501;SDS011;25393;46.108;3.390;2022-08-21T08:15:01;3.00;;;2.80;;
36501;SDS011;25393;46.108;3.390;2022-08-21T08:17:29;9.20;;;3.53;;
36501;SDS011;25393;46.108;3.390;2022-08-21T08:19:55;3.10;;;2.90;;
36501;SDS011;25393;46.108;3.390;2022-08-21T08:22:22;4.53;;;2.90;;
36501;SDS011;25393;46.108;3.390;2022-08-21T08:24:50;3.60;;;3.30;;
36501;SDS011;25393;46.108;3.390;2022-08-21T08:27:18;4.40;;;3.65;;
36501;SDS011;25393;46.108;3.390;2022-08-21T08:29:46;7.53;;;3.47;;
36501;SDS011;25393;46.108;3.390;2022-08-21T08:32:13;3.30;;;3.00;;
36501;SDS011;25393;46.108;3.390;2022-08-21T08:34:41;6.82;;;3.40;;
36501;SDS011;25393;46.108;3.390;2022-08-21T08:37:08;4.53;;;3.25;;
36501;SDS011;25393;46.108;3.390;2022-08-21T08:39:36;8.98;;;3.13;;
36501;SDS011;25393;46.108;3.390;2022-08-21T08:42:06;6.57;;;3.20;;
36501;SDS011;25393;46.108;3.390;2022-08-21T08:44:57;6.88;;;3.17;;
36501;SDS011;25393;46.108;3.390;2022-08-21T08:47:28;4.50;;;3.20;;
36501;SDS011;25393;46.108;3.390;2022-08-21T08:52:54;7.65;;;3.05;;
36501;SDS011;25393;46.108;3.390;2022-08-21T08:55:28;4.97;;;3.47;;
36501;SDS011;25393;46.108;3.390;2022-08-21T08:57:57;5.55;;;3.13;;
36501;SDS011;25393;46.108;3.390;2022-08-21T09:00:24;4.85;;;3.58;;
36501;SDS011;25393;46.108;3.390;2022-08-21T09:02:52;6.65;;;3.38;;
36501;SDS011;25393;46.108;3.390;2022-08-21T09:05:26;5.53;;;2.88;;
36501;SDS011;25393;46.108;3.390;2022-08-21T09:19:04;5.57;;;2.90;;
36501;SDS011;25393;46.108;3.390;2022-08-21T09:24:10;3.38;;;2.50;;
36501;SDS011;25393;46.108;3.390;2022-08-21T09:29:28;3.13;;;2.80;;
36501;SDS011;25393;46.108;3.390;2022-08-21T09:31:58;2.92;;;2.72;;
36501;SDS011;25393;46.108;3.390;2022-08-21T09:34:26;4.95;;;2.80;;
36501;SDS011;25393;46.108;3.390;2022-08-21T09:36:55;4.47;;;3.20;;
36501;SDS011;25393;46.108;3.390;2022-08-21T09:39:30;4.88;;;2.92;;
36501;SDS011;25393;46.108;3.390;2022-08-21T09:42:07;3.38;;;2.53;;
36501;SDS011;25393;46.108;3.390;2022-08-21T09:44:37;3.03;;;2.80;;
36501;SDS011;25393;46.108;3.390;2022-08-21T09:47:07;2.83;;;2.63;;
36501;SDS011;25393;46.108;3.390;2022-08-21T09:49:36;5.30;;;3.08;;
36501;SDS011;25393;46.108;3.390;2022-08-21T09:52:06;5.68;;;2.70;;
36501;SDS011;25393;46.108;3.390;2022-08-21T09:54:43;2.70;;;2.50;;
36501;SDS011;25393;46.108;3.390;2022-08-21T09:57:24;4.43;;;2.78;;
36501;SDS011;25393;46.108;3.390;2022-08-21T10:00:19;6.35;;;2.88;;
36501;SDS011;25393;46.108;3.390;2022-08-21T10:02:52;2.50;;;2.35;;
36501;SDS011;25393;46.108;3.390;2022-08-21T10:05:24;2.40;;;2.20;;
36501;SDS011;25393;46.108;3.390;2022-08-21T10:07:53;3.05;;;2.60;;
36501;SDS011;25393;46.108;3.390;2022-08-21T10:10:24;4.22;;;2.85;;
36501;SDS011;25393;46.108;3.390;2022-08-21T10:13:03;3.30;;;2.60;;
36501;SDS011;25393;46.108;3.390;2022-08-21T10:16:04;3.40;;;2.65;;
36501;SDS011;25393;46.108;3.390;2022-08-21T10:18:54;3.17;;;2.40;;
36501;SDS011;25393;46.108;3.390;2022-08-21T10:21:33;3.15;;;2.25;;
36501;SDS011;25393;46.108;3.390;2022-08-21T10:24:52;3.97;;;2.55;;
36501;SDS011;25393;46.108;3.390;2022-08-21T10:29:53;3.78;;;2.72;;
36501;SDS011;25393;46.108;3.390;2022-08-21T10:45:38;4.28;;;2.22;;
36501;SDS011;25393;46.108;3.390;2022-08-21T10:48:20;3.80;;;2.10;;
36501;SDS011;25393;46.108;3.390;2022-08-21T10:51:15;6.60;;;3.00;;
36501;SDS011;25393;46.108;3.390;2022-08-21T10:54:03;3.97;;;2.83;;
36501;SDS011;25393;46.108;3.390;2022-08-21T10:56:39;4.72;;;2.90;;
36501;SDS011;25393;46.108;3.390;2022-08-21T11:01:59;4.30;;;2.70;;
36501;SDS011;25393;46.108;3.390;2022-08-21T11:07:20;3.63;;;2.42;;
36501;SDS011;25393;46.108;3.390;2022-08-21T11:09:58;4.13;;;2.80;;
36501;SDS011;25393;46.108;3.390;2022-08-21T11:12:44;3.95;;;2.95;;
36501;SDS011;25393;46.108;3.390;2022-08-21T11:23:59;2.90;;;2.65;;
36501;SDS011;25393;46.108;3.390;2022-08-21T11:26:43;3.90;;;3.60;;
36501;SDS011;25393;46.108;3.390;2022-08-21T11:34:47;3.13;;;2.60;;
36501;SDS011;25393;46.108;3.390;2022-08-21T11:51:39;5.05;;;2.88;;
36501;SDS011;25393;46.108;3.390;2022-08-21T11:57:29;2.83;;;2.50;;
36501;SDS011;25393;46.108;3.390;2022-08-21T12:00:13;2.95;;;2.75;;
36501;SDS011;25393;46.108;3.390;2022-08-21T12:03:06;6.25;;;2.80;;
36501;SDS011;25393;46.108;3.390;2022-08-21T12:06:01;3.63;;;2.90;;
36501;SDS011;25393;46.108;3.390;2022-08-21T12:08:36;3.00;;;2.80;;
36501;SDS011;25393;46.108;3.390;2022-08-21T12:11:06;3.25;;;2.70;;
36501;SDS011;25393;46.108;3.390;2022-08-21T12:13:37;3.13;;;2.83;;
36501;SDS011;25393;46.108;3.390;2022-08-21T12:18:42;2.80;;;2.60;;
36501;SDS011;25393;46.108;3.390;2022-08-21T12:26:48;4.78;;;2.58;;
36501;SDS011;25393;46.108;3.390;2022-08-21T12:29:21;3.67;;;2.70;;
36501;SDS011;25393;46.108;3.390;2022-08-21T12:34:23;2.83;;;2.60;;
36501;SDS011;25393;46.108;3.390;2022-08-21T12:37:06;3.22;;;2.92;;
36501;SDS011;25393;46.108;3.390;2022-08-21T12:39:43;4.38;;;2.88;;
36501;SDS011;25393;46.108;3.390;2022-08-21T12:42:23;3.60;;;2.92;;
36501;SDS011;25393;46.108;3.390;2022-08-21T12:45:28;4.63;;;2.78;;
36501;SDS011;25393;46.108;3.390;2022-08-21T12:48:22;9.15;;;2.80;;
36501;SDS011;25393;46.108;3.390;2022-08-21T12:50:57;4.03;;;2.50;;
36501;SDS011;25393;46.108;3.390;2022-08-21T12:53:33;3.83;;;2.92;;
36501;SDS011;25393;46.108;3.390;2022-08-21T12:56:02;3.50;;;2.78;;
36501;SDS011;25393;46.108;3.390;2022-08-21T12:58:30;3.30;;;2.58;;
36501;SDS011;25393;46.108;3.390;2022-08-21T13:01:02;3.67;;;2.38;;
36501;SDS011;25393;46.108;3.390;2022-08-21T13:03:29;4.15;;;3.10;;
36501;SDS011;25393;46.108;3.390;2022-08-21T13:05:58;4.25;;;2.90;;
36501;SDS011;25393;46.108;3.390;2022-08-21T13:08:25;5.55;;;4.03;;
36501;SDS011;25393;46.108;3.390;2022-08-21T13:10:57;3.65;;;2.67;;
36501;SDS011;25393;46.108;3.390;2022-08-21T13:13:40;4.07;;;2.70;;
36501;SDS011;25393;46.108;3.390;2022-08-21T13:16:18;3.83;;;2.65;;
36501;SDS011;25393;46.108;3.390;2022-08-21T13:18:52;3.30;;;3.00;;
36501;SDS011;25393;46.108;3.390;2022-08-21T13:21:29;3.70;;;2.90;;
36501;SDS011;25393;46.108;3.390;2022-08-21T13:24:19;3.00;;;2.80;;
36501;SDS011;25393;46.108;3.390;2022-08-21T13:27:17;6.47;;;3.97;;
36501;SDS011;25393;46.108;3.390;2022-08-21T13:29:47;3.03;;;2.83;;
36501;SDS011;25393;46.108;3.390;2022-08-21T13:32:22;4.60;;;3.00;;
36501;SDS011;25393;46.108;3.390;2022-08-21T13:34:51;5.47;;;3.42;;
36501;SDS011;25393;46.108;3.390;2022-08-21T13:37:19;6.53;;;3.42;;
36501;SDS011;25393;46.108;3.390;2022-08-21T13:39:51;3.00;;;2.80;;
36501;SDS011;25393;46.108;3.390;2022-08-21T13:42:21;4.80;;;3.40;;
36501;SDS011;25393;46.108;3.390;2022-08-21T13:44:53;3.30;;;3.00;;
36501;SDS011;25393;46.108;3.390;2022-08-21T13:47:20;3.00;;;2.80;;
36501;SDS011;25393;46.108;3.390;2022-08-21T13:49:47;3.63;;;2.30;;
36501;SDS011;25393;46.108;3.390;2022-08-21T13:52:20;4.90;;;3.25;;
36501;SDS011;25393;46.108;3.390;2022-08-21T13:54:58;3.13;;;2.80;;
36501;SDS011;25393;46.108;3.390;2022-08-21T13:57:36;3.00;;;2.70;;
36501;SDS011;25393;46.108;3.390;2022-08-21T14:02:42;7.93;;;2.90;;
36501;SDS011;25393;46.108;3.390;2022-08-21T14:05:16;2.70;;;2.50;;
36501;SDS011;25393;46.108;3.390;2022-08-21T14:07:48;3.47;;;2.60;;
36501;SDS011;25393;46.108;3.390;2022-08-21T14:10:19;3.17;;;2.75;;
36501;SDS011;25393;46.108;3.390;2022-08-21T14:12:51;5.30;;;2.80;;
36501;SDS011;25393;46.108;3.390;2022-08-21T14:15:25;2.60;;;2.40;;
36501;SDS011;25393;46.108;3.390;2022-08-21T14:18:13;3.85;;;2.47;;
36501;SDS011;25393;46.108;3.390;2022-08-21T14:20:43;3.30;;;2.60;;
36501;SDS011;25393;46.108;3.390;2022-08-21T14:23:11;6.43;;;2.90;;
36501;SDS011;25393;46.108;3.390;2022-08-21T14:25:49;11.38;;;2.72;;
36501;SDS011;25393;46.108;3.390;2022-08-21T14:28:30;2.90;;;2.53;;
36501;SDS011;25393;46.108;3.390;2022-08-21T14:31:20;3.10;;;2.80;;
36501;SDS011;25393;46.108;3.390;2022-08-21T14:33:47;4.20;;;2.70;;
36501;SDS011;25393;46.108;3.390;2022-08-21T14:36:14;2.90;;;2.70;;
36501;SDS011;25393;46.108;3.390;2022-08-21T14:38:41;3.03;;;2.50;;
36501;SDS011;25393;46.108;3.390;2022-08-21T14:41:18;5.93;;;2.70;;
36501;SDS011;25393;46.108;3.390;2022-08-21T14:43:50;3.05;;;2.85;;
36501;SDS011;25393;46.108;3.390;2022-08-21T14:46:34;4.45;;;2.90;;
36501;SDS011;25393;46.108;3.390;2022-08-21T14:49:16;4.47;;;4.15;;
36501;SDS011;25393;46.108;3.390;2022-08-21T14:51:43;3.08;;;2.70;;
36501;SDS011;25393;46.108;3.390;2022-08-21T14:54:19;3.13;;;2.75;;
36501;SDS011;25393;46.108;3.390;2022-08-21T14:56:53;3.50;;;2.50;;
36501;SDS011;25393;46.108;3.390;2022-08-21T14:59:23;3.55;;;2.83;;
36501;SDS011;25393;46.108;3.390;2022-08-21T15:01:49;3.00;;;2.70;;
36501;SDS011;25393;46.108;3.390;2022-08-21T15:04:16;3.75;;;2.63;;
36501;SDS011;25393;46.108;3.390;2022-08-21T15:06:43;5.25;;;2.60;;
36501;SDS011;25393;46.108;3.390;2022-08-21T15:09:09;5.00;;;3.17;;
36501;SDS011;25393;46.108;3.390;2022-08-21T15:11:36;3.85;;;2.55;;
36501;SDS011;25393;46.108;3.390;2022-08-21T15:14:09;4.97;;;3.00;;
36501;SDS011;25393;46.108;3.390;2022-08-21T15:16:41;3.60;;;2.65;;
36501;SDS011;25393;46.108;3.390;2022-08-21T15:19:08;3.70;;;2.83;;
36501;SDS011;25393;46.108;3.390;2022-08-21T15:21:34;2.85;;;2.65;;
36501;SDS011;25393;46.108;3.390;2022-08-21T15:24:01;3.10;;;2.65;;
36501;SDS011;25393;46.108;3.390;2022-08-21T15:26:37;2.60;;;2.00;;
36501;SDS011;25393;46.108;3.390;2022-08-21T15:29:04;2.40;;;2.30;;
36501;SDS011;25393;46.108;3.390;2022-08-21T15:31:33;3.42;;;2.60;;
36501;SDS011;25393;46.108;3.390;2022-08-21T15:34:02;3.25;;;2.60;;
36501;SDS011;25393;46.108;3.390;2022-08-21T15:36:29;4.45;;;2.53;;
36501;SDS011;25393;46.108;3.390;2022-08-21T15:38:58;2.67;;;2.45;;
36501;SDS011;25393;46.108;3.390;2022-08-21T15:41:25;2.65;;;2.45;;
36501;SDS011;25393;46.108;3.390;2022-08-21T15:43:52;2.47;;;2.33;;
36501;SDS011;25393;46.108;3.390;2022-08-21T15:46:19;2.97;;;2.78;;
36501;SDS011;25393;46.108;3.390;2022-08-21T15:48:47;3.40;;;2.63;;
36501;SDS011;25393;46.108;3.390;2022-08-21T15:51:14;2.72;;;2.20;;
36501;SDS011;25393;46.108;3.390;2022-08-21T15:53:43;2.78;;;2.55;;
36501;SDS011;25393;46.108;3.390;2022-08-21T15:56:32;2.58;;;2.38;;
36501;SDS011;25393;46.108;3.390;2022-08-21T15:59:02;4.30;;;2.53;;
36501;SDS011;25393;46.108;3.390;2022-08-21T16:01:33;2.53;;;2.35;;
36501;SDS011;25393;46.108;3.390;2022-08-21T16:04:10;2.75;;;2.20;;
36501;SDS011;25393;46.108;3.390;2022-08-21T16:06:41;2.50;;;2.38;;
36501;SDS011;25393;46.108;3.390;2022-08-21T16:09:22;3.45;;;2.53;;
36501;SDS011;25393;46.108;3.390;2022-08-21T16:11:49;2.47;;;2.38;;
36501;SDS011;25393;46.108;3.390;2022-08-21T16:14:16;2.40;;;2.30;;
36501;SDS011;25393;46.108;3.390;2022-08-21T16:16:43;4.53;;;4.22;;
36501;SDS011;25393;46.108;3.390;2022-08-21T16:19:10;4.68;;;4.38;;
36501;SDS011;25393;46.108;3.390;2022-08-21T16:21:38;4.57;;;2.63;;
36501;SDS011;25393;46.108;3.390;2022-08-21T16:24:05;2.65;;;2.25;;
36501;SDS011;25393;46.108;3.390;2022-08-21T16:26:32;5.47;;;2.53;;
36501;SDS011;25393;46.108;3.390;2022-08-21T16:28:59;2.65;;;2.20;;
36501;SDS011;25393;46.108;3.390;2022-08-21T16:31:26;2.60;;;2.40;;
36501;SDS011;25393;46.108;3.390;2022-08-21T16:33:54;3.50;;;2.50;;
36501;SDS011;25393;46.108;3.390;2022-08-21T16:36:23;3.15;;;2.78;;
36501;SDS011;25393;46.108;3.390;2022-08-21T16:38:54;2.55;;;2.40;;
36501;SDS011;25393;46.108;3.390;2022-08-21T16:41:23;3.90;;;2.55;;